sensor_id;sensor_type;location;lat;lon;timestamp;P1;durP1;ratioP1;P2;durP2;ratioP2
10977;SDS011;5542;48.272;10.794;2024-03-06T00:02:24;5.22;;;4.75;;
10977;SDS011;5542;48.272;10.794;2024-03-06T00:04:51;6.53;;;5.93;;
10977;SDS011;5542;48.272;10.794;2024-03-06T00:07:19;5.20;;;4.70;;
10977;SDS011;5542;48.272;10.794;2024-03-06T00:09:46;6.97;;;6.28;;
10977;SDS011;5542;48.272;10.794;2024-03-06T00:12:14;5.13;;;4.70;;
10977;SDS011;5542;48.272;10.794;2024-03-06T00:14:40;4.55;;;4.15;;
10977;SDS011;5542;48.272;10.794;2024-03-06T00:17:07;5.88;;;5.35;;
10977;SDS011;5542;48.272;10.794;2024-03-06T00:19:34;6.65;;;6.05;;
10977;SDS011;5542;48.272;10.794;2024-03-06T00:22:01;7.25;;;6.47;;
10977;SDS011;5542;48.272;10.794;2024-03-06T00:24:28;5.47;;;5.07;;
10977;SDS011;5542;48.272;10.794;2024-03-06T00:26:55;6.70;;;6.10;;
10977;SDS011;5542;48.272;10.794;2024-03-06T00:29:23;5.82;;;5.32;;
10977;SDS011;5542;48.272;10.794;2024-03-06T00:31:49;5.13;;;4.63;;
10977;SDS011;5542;48.272;10.794;2024-03-06T00:34:16;6.88;;;6.20;;
10977;SDS011;5542;48.272;10.794;2024-03-06T00:36:43;6.75;;;6.15;;
10977;SDS011;5542;48.272;10.794;2024-03-06T00:39:10;5.85;;;5.30;;
10977;SDS011;5542;48.272;10.794;2024-03-06T00:41:38;5.47;;;4.97;;
10977;SDS011;5542;48.272;10.794;2024-03-06T00:44:05;6.00;;;5.50;;
10977;SDS011;5542;48.272;10.794;2024-03-06T00:46:33;6.40;;;5.85;;
10977;SDS011;5542;48.272;10.794;2024-03-06T00:48:59;6.68;;;5.65;;
10977;SDS011;5542;48.272;10.794;2024-03-06T00:51:26;5.90;;;5.30;;
10977;SDS011;5542;48.272;10.794;2024-03-06T00:53:53;5.97;;;5.47;;
10977;SDS011;5542;48.272;10.794;2024-03-06T00:56:20;7.55;;;6.75;;
10977;SDS011;5542;48.272;10.794;2024-03-06T00:58:46;6.68;;;6.07;;
10977;SDS011;5542;48.272;10.794;2024-03-06T01:01:12;6.03;;;5.53;;
10977;SDS011;5542;48.272;10.794;2024-03-06T01:03:40;5.68;;;5.18;;
10977;SDS011;5542;48.272;10.794;2024-03-06T01:06:07;8.32;;;7.47;;
10977;SDS011;5542;48.272;10.794;2024-03-06T01:08:33;7.05;;;6.22;;
10977;SDS011;5542;48.272;10.794;2024-03-06T01:11:01;6.90;;;6.20;;
10977;SDS011;5542;48.272;10.794;2024-03-06T01:13:29;5.88;;;5.38;;
10977;SDS011;5542;48.272;10.794;2024-03-06T01:15:56;7.70;;;6.90;;
10977;SDS011;5542;48.272;10.794;2024-03-06T01:18:22;6.32;;;5.72;;
10977;SDS011;5542;48.272;10.794;2024-03-06T01:20:50;7.32;;;6.63;;
10977;SDS011;5542;48.272;10.794;2024-03-06T01:23:17;7.25;;;6.63;;
10977;SDS011;5542;48.272;10.794;2024-03-06T01:25:43;6.70;;;6.00;;
10977;SDS011;5542;48.272;10.794;2024-03-06T01:28:10;7.47;;;6.78;;
10977;SDS011;5542;48.272;10.794;2024-03-06T01:30:36;6.65;;;6.05;;
10977;SDS011;5542;48.272;10.794;2024-03-06T01:33:03;6.55;;;5.95;;
10977;SDS011;5542;48.272;10.794;2024-03-06T01:35:30;6.50;;;5.90;;
10977;SDS011;5542;48.272;10.794;2024-03-06T01:37:58;6.30;;;5.70;;
10977;SDS011;5542;48.272;10.794;2024-03-06T01:40:26;7.18;;;6.20;;
10977;SDS011;5542;48.272;10.794;2024-03-06T01:42:54;7.25;;;6.65;;
10977;SDS011;5542;48.272;10.794;2024-03-06T01:45:20;7.10;;;6.40;;
10977;SDS011;5542;48.272;10.794;2024-03-06T01:47:47;7.22;;;6.53;;
10977;SDS011;5542;48.272;10.794;2024-03-06T01:50:13;7.57;;;6.87;;
10977;SDS011;5542;48.272;10.794;2024-03-06T01:52:39;6.57;;;5.97;;
10977;SDS011;5542;48.272;10.794;2024-03-06T01:55:10;5.60;;;5.10;;
10977;SDS011;5542;48.272;10.794;2024-03-06T01:57:38;5.95;;;5.35;;
10977;SDS011;5542;48.272;10.794;2024-03-06T02:00:07;7.22;;;6.53;;
10977;SDS011;5542;48.272;10.794;2024-03-06T02:02:38;6.85;;;6.15;;
10977;SDS011;5542;48.272;10.794;2024-03-06T02:05:06;5.82;;;5.30;;
10977;SDS011;5542;48.272;10.794;2024-03-06T02:07:33;7.18;;;6.47;;
10977;SDS011;5542;48.272;10.794;2024-03-06T02:10:01;5.55;;;5.05;;
10977;SDS011;5542;48.272;10.794;2024-03-06T02:12:31;5.90;;;5.30;;
10977;SDS011;5542;48.272;10.794;2024-03-06T02:14:58;5.97;;;5.45;;
10977;SDS011;5542;48.272;10.794;2024-03-06T02:17:24;5.68;;;5.18;;
10977;SDS011;5542;48.272;10.794;2024-03-06T02:19:55;5.85;;;5.35;;
10977;SDS011;5542;48.272;10.794;2024-03-06T02:22:24;6.28;;;5.68;;
10977;SDS011;5542;48.272;10.794;2024-03-06T02:24:51;4.90;;;4.50;;
10977;SDS011;5542;48.272;10.794;2024-03-06T02:27:17;6.47;;;5.88;;
10977;SDS011;5542;48.272;10.794;2024-03-06T02:29:44;9.13;;;5.93;;
10977;SDS011;5542;48.272;10.794;2024-03-06T02:32:11;5.47;;;4.97;;
10977;SDS011;5542;48.272;10.794;2024-03-06T02:34:38;5.67;;;5.17;;
10977;SDS011;5542;48.272;10.794;2024-03-06T02:37:05;5.32;;;4.82;;
10977;SDS011;5542;48.272;10.794;2024-03-06T02:39:33;5.50;;;4.90;;
10977;SDS011;5542;48.272;10.794;2024-03-06T02:42:00;5.32;;;4.82;;
10977;SDS011;5542;48.272;10.794;2024-03-06T02:44:26;4.90;;;4.50;;
10977;SDS011;5542;48.272;10.794;2024-03-06T02:46:53;5.60;;;5.10;;
10977;SDS011;5542;48.272;10.794;2024-03-06T02:49:19;4.70;;;4.30;;
10977;SDS011;5542;48.272;10.794;2024-03-06T02:51:46;5.20;;;4.70;;
10977;SDS011;5542;48.272;10.794;2024-03-06T02:54:13;5.60;;;5.10;;
10977;SDS011;5542;48.272;10.794;2024-03-06T02:56:41;5.50;;;5.00;;
10977;SDS011;5542;48.272;10.794;2024-03-06T02:59:07;5.85;;;5.00;;
10977;SDS011;5542;48.272;10.794;2024-03-06T03:01:34;5.70;;;4.80;;
10977;SDS011;5542;48.272;10.794;2024-03-06T03:04:01;4.97;;;4.57;;
10977;SDS011;5542;48.272;10.794;2024-03-06T03:06:27;5.88;;;5.00;;
10977;SDS011;5542;48.272;10.794;2024-03-06T03:08:54;5.30;;;4.75;;
10977;SDS011;5542;48.272;10.794;2024-03-06T03:11:21;4.82;;;4.40;;
10977;SDS011;5542;48.272;10.794;2024-03-06T03:13:49;4.57;;;3.92;;
10977;SDS011;5542;48.272;10.794;2024-03-06T03:16:16;5.80;;;4.25;;
10977;SDS011;5542;48.272;10.794;2024-03-06T03:18:43;4.88;;;4.47;;
10977;SDS011;5542;48.272;10.794;2024-03-06T03:21:10;5.68;;;5.10;;
10977;SDS011;5542;48.272;10.794;2024-03-06T03:23:38;5.00;;;4.50;;
10977;SDS011;5542;48.272;10.794;2024-03-06T03:26:05;4.20;;;3.80;;
10977;SDS011;5542;48.272;10.794;2024-03-06T03:28:32;7.85;;;5.38;;
10977;SDS011;5542;48.272;10.794;2024-03-06T03:31:00;5.60;;;4.75;;
10977;SDS011;5542;48.272;10.794;2024-03-06T03:33:26;5.72;;;5.13;;
10977;SDS011;5542;48.272;10.794;2024-03-06T03:35:53;5.50;;;5.00;;
10977;SDS011;5542;48.272;10.794;2024-03-06T03:38:20;6.15;;;5.55;;
10977;SDS011;5542;48.272;10.794;2024-03-06T03:40:46;6.22;;;5.07;;
10977;SDS011;5542;48.272;10.794;2024-03-06T03:43:13;5.63;;;5.05;;
10977;SDS011;5542;48.272;10.794;2024-03-06T03:45:39;5.75;;;5.15;;
10977;SDS011;5542;48.272;10.794;2024-03-06T03:48:08;6.15;;;5.47;;
10977;SDS011;5542;48.272;10.794;2024-03-06T03:50:34;6.30;;;5.53;;
10977;SDS011;5542;48.272;10.794;2024-03-06T03:53:01;6.60;;;5.87;;
10977;SDS011;5542;48.272;10.794;2024-03-06T03:55:28;4.45;;;4.05;;
10977;SDS011;5542;48.272;10.794;2024-03-06T03:57:54;6.53;;;5.30;;
10977;SDS011;5542;48.272;10.794;2024-03-06T04:00:21;11.00;;;8.90;;
10977;SDS011;5542;48.272;10.794;2024-03-06T04:02:48;6.40;;;5.80;;
10977;SDS011;5542;48.272;10.794;2024-03-06T04:05:16;6.10;;;5.50;;
10977;SDS011;5542;48.272;10.794;2024-03-06T04:07:43;9.30;;;7.78;;
10977;SDS011;5542;48.272;10.794;2024-03-06T04:10:10;6.63;;;5.80;;
10977;SDS011;5542;48.272;10.794;2024-03-06T04:12:37;6.40;;;5.80;;
10977;SDS011;5542;48.272;10.794;2024-03-06T04:15:05;5.40;;;4.90;;
10977;SDS011;5542;48.272;10.794;2024-03-06T04:17:33;6.00;;;5.38;;
10977;SDS011;5542;48.272;10.794;2024-03-06T04:20:00;5.75;;;5.25;;
10977;SDS011;5542;48.272;10.794;2024-03-06T04:22:29;6.10;;;5.50;;
10977;SDS011;5542;48.272;10.794;2024-03-06T04:24:55;6.05;;;4.85;;
10977;SDS011;5542;48.272;10.794;2024-03-06T04:27:23;5.20;;;4.70;;
10977;SDS011;5542;48.272;10.794;2024-03-06T04:29:50;5.70;;;5.15;;
10977;SDS011;5542;48.272;10.794;2024-03-06T04:32:17;5.65;;;5.00;;
10977;SDS011;5542;48.272;10.794;2024-03-06T04:34:44;5.78;;;5.25;;
10977;SDS011;5542;48.272;10.794;2024-03-06T04:37:11;6.38;;;5.78;;
10977;SDS011;5542;48.272;10.794;2024-03-06T04:39:39;6.22;;;5.63;;
10977;SDS011;5542;48.272;10.794;2024-03-06T04:42:06;6.00;;;5.40;;
10977;SDS011;5542;48.272;10.794;2024-03-06T04:44:33;6.00;;;5.40;;
10977;SDS011;5542;48.272;10.794;2024-03-06T04:47:00;6.13;;;5.53;;
10977;SDS011;5542;48.272;10.794;2024-03-06T04:49:27;5.88;;;5.35;;
10977;SDS011;5542;48.272;10.794;2024-03-06T04:51:53;6.25;;;5.53;;
10977;SDS011;5542;48.272;10.794;2024-03-06T04:54:20;5.93;;;5.32;;
10977;SDS011;5542;48.272;10.794;2024-03-06T04:56:48;5.73;;;5.20;;
10977;SDS011;5542;48.272;10.794;2024-03-06T04:59:14;5.53;;;5.03;;
10977;SDS011;5542;48.272;10.794;2024-03-06T05:01:41;5.28;;;4.78;;
10977;SDS011;5542;48.272;10.794;2024-03-06T05:04:08;5.72;;;5.18;;
10977;SDS011;5542;48.272;10.794;2024-03-06T05:06:36;5.40;;;4.90;;
10977;SDS011;5542;48.272;10.794;2024-03-06T05:09:03;5.50;;;5.00;;
10977;SDS011;5542;48.272;10.794;2024-03-06T05:11:31;5.65;;;5.15;;
10977;SDS011;5542;48.272;10.794;2024-03-06T05:13:59;6.32;;;5.60;;
10977;SDS011;5542;48.272;10.794;2024-03-06T05:16:26;5.95;;;5.35;;
10977;SDS011;5542;48.272;10.794;2024-03-06T05:18:53;5.45;;;4.95;;
10977;SDS011;5542;48.272;10.794;2024-03-06T05:21:19;5.88;;;5.32;;
10977;SDS011;5542;48.272;10.794;2024-03-06T05:23:47;5.65;;;5.15;;
10977;SDS011;5542;48.272;10.794;2024-03-06T05:26:14;7.10;;;5.93;;
10977;SDS011;5542;48.272;10.794;2024-03-06T05:28:41;6.47;;;5.88;;
10977;SDS011;5542;48.272;10.794;2024-03-06T05:31:16;5.88;;;5.35;;
10977;SDS011;5542;48.272;10.794;2024-03-06T05:33:46;6.50;;;5.90;;
10977;SDS011;5542;48.272;10.794;2024-03-06T05:36:14;6.25;;;5.68;;
10977;SDS011;5542;48.272;10.794;2024-03-06T05:38:42;6.07;;;5.47;;
10977;SDS011;5542;48.272;10.794;2024-03-06T05:41:09;5.80;;;5.20;;
10977;SDS011;5542;48.272;10.794;2024-03-06T05:43:34;6.03;;;5.43;;
10977;SDS011;5542;48.272;10.794;2024-03-06T05:46:01;6.45;;;5.75;;
10977;SDS011;5542;48.272;10.794;2024-03-06T05:48:29;6.15;;;5.55;;
10977;SDS011;5542;48.272;10.794;2024-03-06T05:50:55;6.13;;;5.53;;
10977;SDS011;5542;48.272;10.794;2024-03-06T05:53:22;5.87;;;5.07;;
10977;SDS011;5542;48.272;10.794;2024-03-06T05:55:49;6.10;;;5.57;;
10977;SDS011;5542;48.272;10.794;2024-03-06T05:58:15;6.47;;;5.80;;
10977;SDS011;5542;48.272;10.794;2024-03-06T06:00:42;6.70;;;6.10;;
10977;SDS011;5542;48.272;10.794;2024-03-06T06:03:08;6.82;;;6.15;;
10977;SDS011;5542;48.272;10.794;2024-03-06T06:05:38;6.40;;;5.80;;
10977;SDS011;5542;48.272;10.794;2024-03-06T06:08:05;7.30;;;6.60;;
10977;SDS011;5542;48.272;10.794;2024-03-06T06:10:32;6.68;;;6.00;;
10977;SDS011;5542;48.272;10.794;2024-03-06T06:12:58;8.02;;;6.95;;
10977;SDS011;5542;48.272;10.794;2024-03-06T06:15:25;8.77;;;7.60;;
10977;SDS011;5542;48.272;10.794;2024-03-06T06:17:51;6.35;;;5.68;;
10977;SDS011;5542;48.272;10.794;2024-03-06T06:20:18;8.95;;;7.18;;
10977;SDS011;5542;48.272;10.794;2024-03-06T06:22:46;8.15;;;7.28;;
10977;SDS011;5542;48.272;10.794;2024-03-06T06:25:13;8.18;;;7.38;;
10977;SDS011;5542;48.272;10.794;2024-03-06T06:27:41;8.68;;;7.55;;
10977;SDS011;5542;48.272;10.794;2024-03-06T06:30:08;6.97;;;6.20;;
10977;SDS011;5542;48.272;10.794;2024-03-06T06:32:36;8.95;;;7.80;;
10977;SDS011;5542;48.272;10.794;2024-03-06T06:35:03;7.63;;;6.93;;
10977;SDS011;5542;48.272;10.794;2024-03-06T06:37:30;10.32;;;8.70;;
10977;SDS011;5542;48.272;10.794;2024-03-06T06:39:58;9.35;;;8.38;;
10977;SDS011;5542;48.272;10.794;2024-03-06T06:42:27;9.50;;;8.02;;
10977;SDS011;5542;48.272;10.794;2024-03-06T06:44:54;7.40;;;6.40;;
10977;SDS011;5542;48.272;10.794;2024-03-06T06:47:20;6.65;;;5.95;;
10977;SDS011;5542;48.272;10.794;2024-03-06T06:49:47;6.90;;;6.20;;
10977;SDS011;5542;48.272;10.794;2024-03-06T06:52:14;7.88;;;6.78;;
10977;SDS011;5542;48.272;10.794;2024-03-06T06:54:40;7.15;;;6.07;;
10977;SDS011;5542;48.272;10.794;2024-03-06T06:57:08;7.15;;;6.00;;
10977;SDS011;5542;48.272;10.794;2024-03-06T06:59:35;8.50;;;7.70;;
10977;SDS011;5542;48.272;10.794;2024-03-06T07:02:02;8.80;;;7.80;;
10977;SDS011;5542;48.272;10.794;2024-03-06T07:04:29;8.77;;;7.68;;
10977;SDS011;5542;48.272;10.794;2024-03-06T07:06:55;9.43;;;7.50;;
10977;SDS011;5542;48.272;10.794;2024-03-06T07:09:22;8.70;;;7.38;;
10977;SDS011;5542;48.272;10.794;2024-03-06T07:11:49;10.13;;;7.57;;
10977;SDS011;5542;48.272;10.794;2024-03-06T07:14:17;8.90;;;7.10;;
10977;SDS011;5542;48.272;10.794;2024-03-06T07:16:43;8.60;;;7.43;;
10977;SDS011;5542;48.272;10.794;2024-03-06T07:19:11;9.93;;;8.68;;
10977;SDS011;5542;48.272;10.794;2024-03-06T07:21:37;9.43;;;7.70;;
10977;SDS011;5542;48.272;10.794;2024-03-06T07:24:05;9.23;;;7.43;;
10977;SDS011;5542;48.272;10.794;2024-03-06T07:26:32;10.07;;;7.65;;
10977;SDS011;5542;48.272;10.794;2024-03-06T07:28:59;10.27;;;8.13;;
10977;SDS011;5542;48.272;10.794;2024-03-06T07:31:27;9.13;;;7.50;;
10977;SDS011;5542;48.272;10.794;2024-03-06T07:33:54;7.75;;;6.93;;
10977;SDS011;5542;48.272;10.794;2024-03-06T07:36:20;8.88;;;7.05;;
10977;SDS011;5542;48.272;10.794;2024-03-06T07:38:47;9.10;;;7.88;;
10977;SDS011;5542;48.272;10.794;2024-03-06T07:41:14;9.23;;;7.07;;
10977;SDS011;5542;48.272;10.794;2024-03-06T07:43:40;7.63;;;6.63;;
10977;SDS011;5542;48.272;10.794;2024-03-06T07:46:07;9.23;;;7.32;;
10977;SDS011;5542;48.272;10.794;2024-03-06T07:48:37;9.95;;;6.97;;
10977;SDS011;5542;48.272;10.794;2024-03-06T07:51:03;6.95;;;6.25;;
10977;SDS011;5542;48.272;10.794;2024-03-06T07:53:30;8.75;;;7.00;;
10977;SDS011;5542;48.272;10.794;2024-03-06T07:55:57;9.13;;;7.50;;
10977;SDS011;5542;48.272;10.794;2024-03-06T07:58:24;8.13;;;7.20;;
10977;SDS011;5542;48.272;10.794;2024-03-06T08:00:51;9.25;;;7.35;;
10977;SDS011;5542;48.272;10.794;2024-03-06T08:03:20;8.50;;;7.60;;
10977;SDS011;5542;48.272;10.794;2024-03-06T08:05:49;8.18;;;6.97;;
10977;SDS011;5542;48.272;10.794;2024-03-06T08:08:17;7.50;;;6.72;;
10977;SDS011;5542;48.272;10.794;2024-03-06T08:10:46;7.97;;;7.13;;
10977;SDS011;5542;48.272;10.794;2024-03-06T08:13:13;7.10;;;6.40;;
10977;SDS011;5542;48.272;10.794;2024-03-06T08:15:40;7.05;;;6.35;;
10977;SDS011;5542;48.272;10.794;2024-03-06T08:18:09;7.45;;;6.40;;
10977;SDS011;5542;48.272;10.794;2024-03-06T08:20:36;8.90;;;7.53;;
10977;SDS011;5542;48.272;10.794;2024-03-06T08:23:04;6.93;;;6.22;;
10977;SDS011;5542;48.272;10.794;2024-03-06T08:25:31;6.10;;;5.50;;
10977;SDS011;5542;48.272;10.794;2024-03-06T08:27:58;7.03;;;6.32;;
10977;SDS011;5542;48.272;10.794;2024-03-06T08:30:24;9.57;;;6.70;;
10977;SDS011;5542;48.272;10.794;2024-03-06T08:32:51;8.30;;;6.70;;
10977;SDS011;5542;48.272;10.794;2024-03-06T08:35:18;7.30;;;6.47;;
10977;SDS011;5542;48.272;10.794;2024-03-06T08:37:46;8.73;;;7.07;;
10977;SDS011;5542;48.272;10.794;2024-03-06T08:40:14;8.93;;;6.97;;
10977;SDS011;5542;48.272;10.794;2024-03-06T08:42:42;9.52;;;7.63;;
10977;SDS011;5542;48.272;10.794;2024-03-06T08:45:09;8.27;;;7.00;;
10977;SDS011;5542;48.272;10.794;2024-03-06T08:47:36;9.38;;;7.10;;
10977;SDS011;5542;48.272;10.794;2024-03-06T08:50:03;11.15;;;8.32;;
10977;SDS011;5542;48.272;10.794;2024-03-06T08:52:31;9.70;;;7.40;;
10977;SDS011;5542;48.272;10.794;2024-03-06T08:54:58;11.57;;;8.70;;
10977;SDS011;5542;48.272;10.794;2024-03-06T08:57:26;9.93;;;7.80;;
10977;SDS011;5542;48.272;10.794;2024-03-06T08:59:53;10.65;;;7.85;;
10977;SDS011;5542;48.272;10.794;2024-03-06T09:02:20;9.55;;;8.38;;
10977;SDS011;5542;48.272;10.794;2024-03-06T09:04:47;11.13;;;8.43;;
10977;SDS011;5542;48.272;10.794;2024-03-06T09:07:14;11.93;;;9.80;;
10977;SDS011;5542;48.272;10.794;2024-03-06T09:09:40;12.35;;;9.55;;
10977;SDS011;5542;48.272;10.794;2024-03-06T09:12:08;11.32;;;8.55;;
10977;SDS011;5542;48.272;10.794;2024-03-06T09:14:37;9.87;;;8.17;;
10977;SDS011;5542;48.272;10.794;2024-03-06T09:17:04;11.85;;;8.50;;
10977;SDS011;5542;48.272;10.794;2024-03-06T09:19:32;11.82;;;9.15;;
10977;SDS011;5542;48.272;10.794;2024-03-06T09:21:59;10.50;;;7.80;;
10977;SDS011;5542;48.272;10.794;2024-03-06T09:24:25;11.75;;;8.57;;
10977;SDS011;5542;48.272;10.794;2024-03-06T09:26:53;8.90;;;7.45;;
10977;SDS011;5542;48.272;10.794;2024-03-06T09:29:20;12.13;;;9.23;;
10977;SDS011;5542;48.272;10.794;2024-03-06T09:31:48;10.10;;;8.35;;
10977;SDS011;5542;48.272;10.794;2024-03-06T09:34:14;9.48;;;8.10;;
10977;SDS011;5542;48.272;10.794;2024-03-06T09:36:45;8.93;;;7.30;;
10977;SDS011;5542;48.272;10.794;2024-03-06T09:39:13;12.50;;;8.38;;
10977;SDS011;5542;48.272;10.794;2024-03-06T09:41:41;11.38;;;8.60;;
10977;SDS011;5542;48.272;10.794;2024-03-06T09:44:09;10.00;;;7.53;;
10977;SDS011;5542;48.272;10.794;2024-03-06T09:46:35;9.23;;;7.90;;
10977;SDS011;5542;48.272;10.794;2024-03-06T09:49:03;10.02;;;7.82;;
10977;SDS011;5542;48.272;10.794;2024-03-06T09:51:30;9.00;;;7.22;;
10977;SDS011;5542;48.272;10.794;2024-03-06T09:53:58;11.32;;;8.15;;
10977;SDS011;5542;48.272;10.794;2024-03-06T09:56:24;11.07;;;7.85;;
10977;SDS011;5542;48.272;10.794;2024-03-06T09:58:51;12.30;;;8.82;;
10977;SDS011;5542;48.272;10.794;2024-03-06T10:01:19;10.07;;;7.88;;
10977;SDS011;5542;48.272;10.794;2024-03-06T10:03:47;9.82;;;7.88;;
10977;SDS011;5542;48.272;10.794;2024-03-06T10:06:15;10.43;;;7.73;;
10977;SDS011;5542;48.272;10.794;2024-03-06T10:08:42;9.23;;;7.63;;
10977;SDS011;5542;48.272;10.794;2024-03-06T10:11:11;11.73;;;8.85;;
10977;SDS011;5542;48.272;10.794;2024-03-06T10:13:38;10.93;;;8.30;;
10977;SDS011;5542;48.272;10.794;2024-03-06T10:16:05;11.20;;;7.57;;
10977;SDS011;5542;48.272;10.794;2024-03-06T10:18:35;10.80;;;8.45;;
10977;SDS011;5542;48.272;10.794;2024-03-06T10:21:04;12.38;;;9.07;;
10977;SDS011;5542;48.272;10.794;2024-03-06T10:23:32;11.60;;;8.55;;
10977;SDS011;5542;48.272;10.794;2024-03-06T10:25:59;12.05;;;8.85;;
10977;SDS011;5542;48.272;10.794;2024-03-06T10:28:26;12.85;;;9.38;;
10977;SDS011;5542;48.272;10.794;2024-03-06T10:31:02;12.73;;;9.05;;
10977;SDS011;5542;48.272;10.794;2024-03-06T10:33:31;13.45;;;9.15;;
10977;SDS011;5542;48.272;10.794;2024-03-06T10:35:57;15.85;;;10.18;;
10977;SDS011;5542;48.272;10.794;2024-03-06T10:38:24;15.85;;;10.63;;
10977;SDS011;5542;48.272;10.794;2024-03-06T10:41:01;13.48;;;10.20;;
10977;SDS011;5542;48.272;10.794;2024-03-06T10:43:28;26.17;;;14.90;;
10977;SDS011;5542;48.272;10.794;2024-03-06T10:45:57;19.02;;;11.75;;
10977;SDS011;5542;48.272;10.794;2024-03-06T10:48:27;17.20;;;11.75;;
10977;SDS011;5542;48.272;10.794;2024-03-06T10:50:54;13.93;;;9.93;;
10977;SDS011;5542;48.272;10.794;2024-03-06T10:53:21;13.30;;;9.10;;
10977;SDS011;5542;48.272;10.794;2024-03-06T10:55:49;12.50;;;9.50;;
10977;SDS011;5542;48.272;10.794;2024-03-06T10:58:17;13.52;;;10.00;;
10977;SDS011;5542;48.272;10.794;2024-03-06T11:00:46;13.15;;;9.43;;
10977;SDS011;5542;48.272;10.794;2024-03-06T11:03:13;11.18;;;8.55;;
10977;SDS011;5542;48.272;10.794;2024-03-06T11:05:41;9.60;;;7.63;;
10977;SDS011;5542;48.272;10.794;2024-03-06T11:08:09;13.20;;;10.35;;
10977;SDS011;5542;48.272;10.794;2024-03-06T11:10:37;14.80;;;10.93;;
10977;SDS011;5542;48.272;10.794;2024-03-06T11:13:08;15.95;;;11.80;;
10977;SDS011;5542;48.272;10.794;2024-03-06T11:15:48;13.65;;;10.43;;
10977;SDS011;5542;48.272;10.794;2024-03-06T11:24:13;14.45;;;10.00;;
10977;SDS011;5542;48.272;10.794;2024-03-06T11:26:48;16.73;;;10.63;;
10977;SDS011;5542;48.272;10.794;2024-03-06T11:29:15;12.90;;;10.00;;
10977;SDS011;5542;48.272;10.794;2024-03-06T11:31:58;14.23;;;10.80;;
10977;SDS011;5542;48.272;10.794;2024-03-06T11:34:27;12.40;;;9.10;;
10977;SDS011;5542;48.272;10.794;2024-03-06T11:36:56;14.25;;;9.85;;
10977;SDS011;5542;48.272;10.794;2024-03-06T11:39:23;14.48;;;10.57;;
10977;SDS011;5542;48.272;10.794;2024-03-06T11:41:50;14.15;;;10.38;;
10977;SDS011;5542;48.272;10.794;2024-03-06T11:44:17;14.95;;;10.52;;
10977;SDS011;5542;48.272;10.794;2024-03-06T11:46:46;14.88;;;10.70;;
10977;SDS011;5542;48.272;10.794;2024-03-06T11:49:16;15.43;;;11.40;;
10977;SDS011;5542;48.272;10.794;2024-03-06T11:51:46;15.60;;;10.87;;
10977;SDS011;5542;48.272;10.794;2024-03-06T11:54:13;14.93;;;10.88;;
10977;SDS011;5542;48.272;10.794;2024-03-06T11:56:40;16.13;;;11.07;;
10977;SDS011;5542;48.272;10.794;2024-03-06T11:59:07;15.63;;;11.38;;
10977;SDS011;5542;48.272;10.794;2024-03-06T12:01:34;14.70;;;10.20;;
10977;SDS011;5542;48.272;10.794;2024-03-06T12:04:01;15.73;;;11.23;;
10977;SDS011;5542;48.272;10.794;2024-03-06T12:06:31;13.60;;;10.90;;
10977;SDS011;5542;48.272;10.794;2024-03-06T12:08:58;16.20;;;11.32;;
10977;SDS011;5542;48.272;10.794;2024-03-06T12:11:25;13.57;;;10.55;;
10977;SDS011;5542;48.272;10.794;2024-03-06T12:13:53;13.52;;;9.77;;
10977;SDS011;5542;48.272;10.794;2024-03-06T12:16:20;15.48;;;10.82;;
10977;SDS011;5542;48.272;10.794;2024-03-06T12:18:53;15.55;;;10.68;;
10977;SDS011;5542;48.272;10.794;2024-03-06T12:21:22;16.73;;;11.77;;
10977;SDS011;5542;48.272;10.794;2024-03-06T12:23:50;12.38;;;9.38;;
10977;SDS011;5542;48.272;10.794;2024-03-06T12:26:28;14.93;;;10.63;;
10977;SDS011;5542;48.272;10.794;2024-03-06T12:29:03;13.82;;;9.75;;
10977;SDS011;5542;48.272;10.794;2024-03-06T12:31:30;14.15;;;10.57;;
10977;SDS011;5542;48.272;10.794;2024-03-06T12:33:58;14.02;;;9.70;;
10977;SDS011;5542;48.272;10.794;2024-03-06T12:36:26;13.15;;;9.95;;
10977;SDS011;5542;48.272;10.794;2024-03-06T12:38:55;15.63;;;12.15;;
10977;SDS011;5542;48.272;10.794;2024-03-06T12:41:22;14.40;;;10.30;;
10977;SDS011;5542;48.272;10.794;2024-03-06T12:43:51;12.23;;;8.97;;
10977;SDS011;5542;48.272;10.794;2024-03-06T12:46:17;12.88;;;10.02;;
10977;SDS011;5542;48.272;10.794;2024-03-06T12:48:44;15.38;;;11.38;;
10977;SDS011;5542;48.272;10.794;2024-03-06T12:51:11;13.88;;;10.77;;
10977;SDS011;5542;48.272;10.794;2024-03-06T12:53:37;14.95;;;10.88;;
10977;SDS011;5542;48.272;10.794;2024-03-06T12:56:06;16.05;;;11.23;;
10977;SDS011;5542;48.272;10.794;2024-03-06T12:58:34;16.05;;;12.43;;
10977;SDS011;5542;48.272;10.794;2024-03-06T13:01:01;14.85;;;10.73;;
10977;SDS011;5542;48.272;10.794;2024-03-06T13:03:27;13.33;;;10.27;;
10977;SDS011;5542;48.272;10.794;2024-03-06T13:05:54;8.05;;;6.63;;
10977;SDS011;5542;48.272;10.794;2024-03-06T13:08:20;7.75;;;6.05;;
10977;SDS011;5542;48.272;10.794;2024-03-06T13:10:47;9.63;;;6.90;;
10977;SDS011;5542;48.272;10.794;2024-03-06T13:13:15;8.75;;;6.82;;
10977;SDS011;5542;48.272;10.794;2024-03-06T13:15:41;8.60;;;7.50;;
10977;SDS011;5542;48.272;10.794;2024-03-06T13:18:08;9.55;;;7.13;;
10977;SDS011;5542;48.272;10.794;2024-03-06T13:20:35;10.70;;;7.78;;
10977;SDS011;5542;48.272;10.794;2024-03-06T13:23:02;9.82;;;7.53;;
10977;SDS011;5542;48.272;10.794;2024-03-06T13:25:28;7.90;;;6.53;;
10977;SDS011;5542;48.272;10.794;2024-03-06T13:27:56;8.02;;;6.82;;
10977;SDS011;5542;48.272;10.794;2024-03-06T13:30:25;6.93;;;6.00;;
10977;SDS011;5542;48.272;10.794;2024-03-06T13:32:52;5.30;;;4.80;;
10977;SDS011;5542;48.272;10.794;2024-03-06T13:35:19;5.13;;;4.63;;
10977;SDS011;5542;48.272;10.794;2024-03-06T13:37:46;5.30;;;4.80;;
10977;SDS011;5542;48.272;10.794;2024-03-06T13:40:14;5.03;;;4.53;;
10977;SDS011;5542;48.272;10.794;2024-03-06T13:42:41;4.38;;;3.97;;
10977;SDS011;5542;48.272;10.794;2024-03-06T13:45:08;6.68;;;5.32;;
10977;SDS011;5542;48.272;10.794;2024-03-06T13:47:38;19.90;;;12.87;;
10977;SDS011;5542;48.272;10.794;2024-03-06T13:50:06;5.00;;;4.50;;
10977;SDS011;5542;48.272;10.794;2024-03-06T13:52:34;4.80;;;4.22;;
10977;SDS011;5542;48.272;10.794;2024-03-06T13:55:01;5.03;;;4.40;;
10977;SDS011;5542;48.272;10.794;2024-03-06T13:57:29;4.78;;;4.10;;
10977;SDS011;5542;48.272;10.794;2024-03-06T13:59:58;4.65;;;4.25;;
10977;SDS011;5542;48.272;10.794;2024-03-06T14:02:25;4.30;;;3.90;;
10977;SDS011;5542;48.272;10.794;2024-03-06T14:04:53;4.32;;;3.80;;
10977;SDS011;5542;48.272;10.794;2024-03-06T14:07:19;4.22;;;3.67;;
10977;SDS011;5542;48.272;10.794;2024-03-06T14:09:46;4.13;;;3.72;;
10977;SDS011;5542;48.272;10.794;2024-03-06T14:12:13;4.30;;;3.92;;
10977;SDS011;5542;48.272;10.794;2024-03-06T14:14:39;4.03;;;3.63;;
10977;SDS011;5542;48.272;10.794;2024-03-06T14:17:06;5.18;;;4.47;;
10977;SDS011;5542;48.272;10.794;2024-03-06T14:19:33;4.32;;;3.92;;
10977;SDS011;5542;48.272;10.794;2024-03-06T14:22:01;7.13;;;6.43;;
10977;SDS011;5542;48.272;10.794;2024-03-06T14:24:27;5.40;;;4.90;;
10977;SDS011;5542;48.272;10.794;2024-03-06T14:26:55;4.85;;;4.30;;
10977;SDS011;5542;48.272;10.794;2024-03-06T14:29:21;5.28;;;4.78;;
10977;SDS011;5542;48.272;10.794;2024-03-06T14:31:48;5.30;;;4.72;;
10977;SDS011;5542;48.272;10.794;2024-03-06T14:34:14;5.28;;;4.70;;
10977;SDS011;5542;48.272;10.794;2024-03-06T14:36:41;11.13;;;8.27;;
10977;SDS011;5542;48.272;10.794;2024-03-06T14:39:09;6.85;;;5.60;;
10977;SDS011;5542;48.272;10.794;2024-03-06T14:41:36;7.68;;;6.10;;
10977;SDS011;5542;48.272;10.794;2024-03-06T14:44:03;4.85;;;4.38;;
10977;SDS011;5542;48.272;10.794;2024-03-06T14:46:30;4.25;;;3.85;;
10977;SDS011;5542;48.272;10.794;2024-03-06T14:48:56;4.20;;;3.80;;
10977;SDS011;5542;48.272;10.794;2024-03-06T14:51:23;26.20;;;15.30;;